createdAt,value
2023-01-17T00:02:03.043Z,96031.75
2023-01-17T00:04:48.662Z,96020.84
2023-01-17T00:07:36.887Z,96012.75
2023-01-17T00:10:29.799Z,96009.81
2023-01-17T00:12:58.996Z,96006.38
2023-01-17T00:15:27.293Z,95986.78
2023-01-17T00:17:54.377Z,96003.28
2023-01-17T00:20:45.576Z,95990.28
2023-01-17T00:23:42.427Z,96007.84
2023-01-17T00:26:14.366Z,95991.81
2023-01-17T00:28:42.925Z,96000.72
2023-01-17T00:31:11.526Z,95997.59
2023-01-17T00:33:38.488Z,95997.44
2023-01-17T00:36:06.184Z,95987.78
2023-01-17T00:38:35.710Z,95972.53
2023-01-17T00:41:07.583Z,95978.50
2023-01-17T00:43:52.983Z,96002.44
2023-01-17T00:46:38.430Z,95993.09
2023-01-17T00:49:24.280Z,95982.34
2023-01-17T00:52:10.021Z,95999.44
2023-01-17T00:54:55.040Z,95993.72
2023-01-17T00:57:39.879Z,95992.63
2023-01-17T01:00:25.672Z,96007.97
2023-01-17T01:03:10.772Z,96016.19
2023-01-17T01:05:56.703Z,96002.38
2023-01-17T01:08:46.772Z,96006.38
2023-01-17T01:11:36.041Z,96019.72
2023-01-17T01:14:21.279Z,96016.91
2023-01-17T01:17:06.222Z,96011.03
2023-01-17T01:19:51.547Z,96024.06
2023-01-17T01:22:36.493Z,96013.09
2023-01-17T01:25:21.678Z,96018.47
2023-01-17T01:28:06.688Z,96019.88
2023-01-17T01:30:51.777Z,96025.53
2023-01-17T01:33:21.016Z,96014.34
2023-01-17T01:35:52.515Z,96000.28
2023-01-17T01:38:20.836Z,95988.91
2023-01-17T01:40:49.997Z,95988.44
2023-01-17T01:43:20.161Z,95983.13
2023-01-17T01:45:57.393Z,95974.31
2023-01-17T01:48:33.844Z,95992.88
2023-01-17T01:51:04.714Z,95986.88
2023-01-17T01:53:35.661Z,95975.19
2023-01-17T01:56:05.568Z,95975.31
2023-01-17T01:58:34.795Z,95978.13
2023-01-17T02:01:01.459Z,95969.53
2023-01-17T02:03:32.529Z,95959.00
2023-01-17T02:06:07.700Z,95947.31
2023-01-17T02:08:35.342Z,95948.75
2023-01-17T02:11:02.386Z,95954.84
2023-01-17T02:13:29.208Z,95946.44
2023-01-17T02:16:04.725Z,95952.34
2023-01-17T02:18:49.459Z,95942.97
2023-01-17T02:21:26.328Z,95935.25
2023-01-17T02:23:55.814Z,95918.25
2023-01-17T02:26:50.185Z,95946.25
2023-01-17T02:29:19.620Z,95930.78
2023-01-17T02:32:08.715Z,95932.03
2023-01-17T02:34:51.380Z,95919.75
2023-01-17T02:37:41.382Z,95899.28
2023-01-17T02:40:14.358Z,95900.06
2023-01-17T02:42:48.265Z,95901.50
2023-01-17T02:45:17.848Z,95905.56
2023-01-17T02:47:44.700Z,95910.97
2023-01-17T02:50:20.741Z,95915.69
2023-01-17T02:53:25.339Z,95922.66
2023-01-17T02:56:10.339Z,95933.47
2023-01-17T02:58:58.509Z,95931.75
2023-01-17T03:01:41.548Z,95926.91
2023-01-17T03:04:50.342Z,95923.53
2023-01-17T03:07:23.619Z,95909.75
2023-01-17T03:09:56.317Z,95914.56
2023-01-17T03:12:22.968Z,95916.09
2023-01-17T03:14:49.736Z,95918.88
2023-01-17T03:17:16.572Z,95942.34
2023-01-17T03:19:43.208Z,95962.44
2023-01-17T03:22:09.853Z,95940.31
2023-01-17T03:24:36.364Z,95934.84
2023-01-17T03:27:02.947Z,95945.28
2023-01-17T03:29:29.456Z,95948.72
2023-01-17T03:31:56.002Z,95951.44
2023-01-17T03:34:22.676Z,95962.13
2023-01-17T03:36:49.685Z,95961.84
2023-01-17T03:39:16.248Z,95955.56
2023-01-17T03:41:42.786Z,95948.31
2023-01-17T03:44:09.426Z,95942.31
2023-01-17T03:46:36.785Z,95949.16
2023-01-17T03:49:03.268Z,95942.31
2023-01-17T03:51:29.856Z,95956.78
2023-01-17T03:53:56.409Z,95951.97
2023-01-17T03:56:22.957Z,95956.00
2023-01-17T03:58:49.510Z,95969.09
2023-01-17T04:01:16.131Z,95964.28
2023-01-17T04:03:42.705Z,95960.41
2023-01-17T04:06:09.501Z,95973.63
2023-01-17T04:08:36.102Z,95977.19
2023-01-17T04:11:02.742Z,95993.81
2023-01-17T04:13:29.317Z,96002.69
2023-01-17T04:15:56.208Z,96000.00
2023-01-17T04:18:24.275Z,96012.56
2023-01-17T04:20:51.565Z,95997.44
2023-01-17T04:23:18.472Z,95992.13
2023-01-17T04:25:45.228Z,95987.47
2023-01-17T04:28:12.323Z,95991.00
2023-01-17T04:30:39.247Z,95986.94
2023-01-17T04:33:05.932Z,96006.84
2023-01-17T04:35:33.630Z,95985.72
2023-01-17T04:38:00.209Z,95984.03
2023-01-17T04:40:26.775Z,95998.53
2023-01-17T04:42:54.365Z,96015.66
2023-01-17T04:45:21.306Z,96011.63
2023-01-17T04:47:47.926Z,96017.06
2023-01-17T04:50:14.586Z,96003.81
2023-01-17T04:52:41.128Z,96002.94
2023-01-17T04:55:08.337Z,96011.63
2023-01-17T04:57:34.918Z,95981.47
2023-01-17T05:00:01.529Z,95989.91
2023-01-17T05:02:28.131Z,95981.53
2023-01-17T05:04:54.739Z,95972.19
2023-01-17T05:07:21.311Z,95991.50
2023-01-17T05:09:48.052Z,95998.91
2023-01-17T05:12:14.781Z,95987.91
2023-01-17T05:14:41.381Z,95994.00
2023-01-17T05:17:07.915Z,95995.53
2023-01-17T05:19:34.679Z,96001.13
2023-01-17T05:22:04.155Z,96011.56
2023-01-17T05:24:31.672Z,95996.47
2023-01-17T05:27:03.132Z,96018.50
2023-01-17T05:29:30.644Z,96014.16
2023-01-17T05:31:57.574Z,96013.69
2023-01-17T05:34:24.475Z,96007.31
2023-01-17T05:36:51.275Z,96003.88
2023-01-17T05:39:18.105Z,96004.81
2023-01-17T05:41:44.725Z,95998.38
2023-01-17T05:44:11.589Z,96003.22
2023-01-17T05:46:38.342Z,96002.44
2023-01-17T05:49:05.380Z,95996.94
2023-01-17T05:51:32.141Z,96012.22
2023-01-17T05:53:58.717Z,96010.72
2023-01-17T05:56:25.404Z,96019.72
2023-01-17T05:58:52.284Z,96034.34
2023-01-17T06:01:19.692Z,96024.06
2023-01-17T06:03:46.389Z,96006.38
2023-01-17T06:06:13.164Z,95990.22
2023-01-17T06:08:39.741Z,95997.97
2023-01-17T06:11:06.455Z,96016.13
2023-01-17T06:13:33.045Z,96002.94
2023-01-17T06:16:03.017Z,96012.38
2023-01-17T06:18:31.137Z,95983.63
2023-01-17T06:20:58.295Z,96004.94
2023-01-17T06:23:25.013Z,96008.63
2023-01-17T06:25:51.658Z,96017.44
2023-01-17T06:28:20.627Z,95998.81
2023-01-17T06:30:47.440Z,96004.34
2023-01-17T06:33:14.514Z,96013.63
2023-01-17T06:35:48.255Z,96009.13
2023-01-17T06:38:14.934Z,96004.41
2023-01-17T06:40:41.452Z,96014.41
2023-01-17T06:43:08.037Z,96013.94
2023-01-17T06:45:35.867Z,96010.16
2023-01-17T06:48:04.262Z,96012.31
2023-01-17T06:50:32.006Z,96007.31
2023-01-17T06:53:04.296Z,96012.34
2023-01-17T06:55:33.738Z,96038.22
2023-01-17T06:58:02.682Z,96018.34
2023-01-17T07:00:31.220Z,96001.88
2023-01-17T07:02:58.007Z,96007.47
2023-01-17T07:05:25.232Z,96020.84
2023-01-17T07:07:51.969Z,96012.75
2023-01-17T07:10:18.566Z,96013.38
2023-01-17T07:12:45.142Z,96039.25
2023-01-17T07:15:12.217Z,96041.88
2023-01-17T07:17:39.185Z,96033.47
2023-01-17T07:20:06.823Z,96044.66
2023-01-17T07:22:33.355Z,96049.09
2023-01-17T07:25:00.368Z,96052.03
2023-01-17T07:27:30.422Z,96040.91
2023-01-17T07:29:57.631Z,96058.31
2023-01-17T07:32:26.611Z,96056.09
2023-01-17T07:34:54.223Z,96076.97
2023-01-17T07:37:21.148Z,96088.63
2023-01-17T07:39:47.769Z,96095.59
2023-01-17T07:42:14.349Z,96084.09
2023-01-17T07:44:43.998Z,96081.88
2023-01-17T07:47:11.320Z,96087.66
2023-01-17T07:49:37.987Z,96090.56
2023-01-17T07:52:07.759Z,96097.91
2023-01-17T07:54:34.455Z,96098.31
2023-01-17T07:57:01.422Z,96089.63
2023-01-17T07:59:28.031Z,96089.81
2023-01-17T08:01:54.676Z,96085.75
2023-01-17T08:04:21.363Z,96083.81
2023-01-17T08:06:51.010Z,96094.09
2023-01-17T08:09:17.639Z,96088.38
2023-01-17T08:11:44.180Z,96095.53
2023-01-17T08:14:10.740Z,96100.47
2023-01-17T08:16:38.176Z,96119.16
2023-01-17T08:19:04.729Z,96113.53
2023-01-17T08:21:31.304Z,96104.91
2023-01-17T08:23:57.885Z,96114.13
2023-01-17T08:26:24.412Z,96108.41
2023-01-17T08:29:00.898Z,96110.53
2023-01-17T08:31:33.445Z,96114.22
2023-01-17T08:34:00.086Z,96132.59
2023-01-17T08:36:28.585Z,96147.00
2023-01-17T08:38:55.540Z,96137.63
2023-01-17T08:41:23.641Z,96140.94
2023-01-17T08:43:51.749Z,96127.19
2023-01-17T08:46:19.067Z,96135.31
2023-01-17T08:48:46.100Z,96137.41
2023-01-17T08:51:13.047Z,96136.09
2023-01-17T08:53:40.641Z,96127.66
2023-01-17T08:56:07.690Z,96123.69
2023-01-17T08:58:35.871Z,96124.84
2023-01-17T09:01:04.322Z,96112.06
2023-01-17T09:03:32.198Z,96122.91
2023-01-17T09:06:07.643Z,96132.19
2023-01-17T09:08:34.854Z,96143.41
2023-01-17T09:11:09.544Z,96116.97
2023-01-17T09:13:36.666Z,96111.25
2023-01-17T09:16:04.494Z,96113.78
2023-01-17T09:18:32.927Z,96092.31
2023-01-17T09:20:59.924Z,96117.47
2023-01-17T09:23:29.750Z,96132.38
2023-01-17T09:25:58.340Z,96121.03
2023-01-17T09:28:26.664Z,96108.34
2023-01-17T09:30:54.097Z,96111.84
2023-01-17T09:33:23.281Z,96099.63
2023-01-17T09:35:50.038Z,96114.34
2023-01-17T09:38:16.800Z,96101.19
2023-01-17T09:40:46.605Z,96100.19
2023-01-17T09:43:23.643Z,96101.75
2023-01-17T09:45:50.486Z,96107.38
2023-01-17T09:48:28.260Z,96100.75
2023-01-17T09:51:04.668Z,96117.34
2023-01-17T09:53:37.542Z,96108.91
2023-01-17T09:56:10.478Z,96108.22
2023-01-17T09:58:48.054Z,96105.72
2023-01-17T10:01:50.254Z,96105.22
2023-01-17T10:04:25.871Z,96103.97
2023-01-17T10:06:58.455Z,96102.22
2023-01-17T10:09:30.216Z,96091.16
2023-01-17T10:12:06.436Z,96078.13
2023-01-17T10:15:18.211Z,96086.31
2023-01-17T10:17:59.143Z,96071.78
2023-01-17T10:20:40.761Z,96073.34
2023-01-17T10:23:22.179Z,96068.19
2023-01-17T10:25:52.515Z,96055.72
2023-01-17T10:28:51.090Z,96045.31
2023-01-17T10:31:31.081Z,96040.69
2023-01-17T10:34:06.874Z,96037.47
2023-01-17T10:36:41.496Z,96045.59
2023-01-17T10:39:20.322Z,96047.00
2023-01-17T10:41:58.062Z,96032.56
2023-01-17T10:44:33.309Z,96018.81
2023-01-17T10:47:08.758Z,96014.75
2023-01-17T10:49:39.844Z,96010.28
2023-01-17T10:52:24.537Z,95997.84
2023-01-17T10:55:05.272Z,96004.28
2023-01-17T10:57:46.009Z,96011.75
2023-01-17T11:00:41.825Z,96010.31
2023-01-17T11:03:11.431Z,96006.81
2023-01-17T11:05:40.716Z,96001.72
2023-01-17T11:08:13.549Z,96005.13
2023-01-17T11:10:40.241Z,96011.66
2023-01-17T11:13:29.864Z,95988.41
2023-01-17T11:16:03.075Z,95984.72
2023-01-17T11:18:35.776Z,95973.47
2023-01-17T11:21:28.818Z,95969.44
2023-01-17T11:23:57.213Z,95965.03
2023-01-17T11:26:28.569Z,95955.56
2023-01-17T11:29:38.923Z,95964.81
2023-01-17T11:32:23.683Z,95963.81
2023-01-17T11:35:35.171Z,95946.94
2023-01-17T11:38:27.768Z,95940.84
2023-01-17T11:41:14.293Z,95934.94
2023-01-17T11:43:55.720Z,95930.38
2023-01-17T11:46:23.991Z,95929.63
2023-01-17T11:48:59.640Z,95920.22
2023-01-17T11:51:41.413Z,95923.38
2023-01-17T11:54:38.918Z,95922.63
2023-01-17T11:57:07.419Z,95903.16
2023-01-17T11:59:38.744Z,95902.69
2023-01-17T12:02:42.906Z,95895.31
2023-01-17T12:05:18.656Z,95886.44
2023-01-17T12:08:03.673Z,95885.66
2023-01-17T12:10:44.239Z,95889.00
2023-01-17T12:13:40.245Z,95893.41
2023-01-17T12:16:31.287Z,95887.81
2023-01-17T12:19:26.869Z,95870.13
2023-01-17T12:22:33.915Z,95871.16
2023-01-17T12:25:14.917Z,95855.25
2023-01-17T12:27:42.712Z,95867.53
2023-01-17T12:30:57.564Z,95851.63
2023-01-17T12:33:54.991Z,95844.44
2023-01-17T12:36:40.062Z,95840.34
2023-01-17T12:39:11.766Z,95832.13
2023-01-17T12:41:51.880Z,95829.09
2023-01-17T12:44:22.213Z,95841.38
2023-01-17T12:47:00.708Z,95837.78
2023-01-17T12:49:41.697Z,95827.28
2023-01-17T12:52:20.101Z,95823.22
2023-01-17T12:54:53.300Z,95832.94
2023-01-17T12:57:27.404Z,95836.78
2023-01-17T13:00:00.037Z,95833.97
2023-01-17T13:02:36.463Z,95826.53
2023-01-17T13:05:03.197Z,95836.28
2023-01-17T13:08:05.028Z,95832.94
2023-01-17T13:10:51.169Z,95843.97
2023-01-17T13:13:26.262Z,95852.66
2023-01-17T13:15:58.328Z,95844.47
2023-01-17T13:18:29.560Z,95862.66
2023-01-17T13:21:06.160Z,95857.75
2023-01-17T13:24:02.229Z,95850.09
2023-01-17T13:26:28.796Z,95875.16
2023-01-17T13:29:00.602Z,95866.44
2023-01-17T13:32:05.911Z,95857.47
2023-01-17T13:35:03.510Z,95855.69
2023-01-17T13:37:57.862Z,95861.06
2023-01-17T13:40:34.294Z,95862.84
2023-01-17T13:43:02.444Z,95862.31
2023-01-17T13:45:32.787Z,95868.47
2023-01-17T13:48:18.251Z,95867.44
2023-01-17T13:50:49.087Z,95869.00
2023-01-17T13:53:27.658Z,95865.13
2023-01-17T13:56:25.394Z,95870.78
2023-01-17T13:58:54.516Z,95866.66
2023-01-17T14:01:23.899Z,95860.53
2023-01-17T14:03:50.637Z,95864.34
2023-01-17T14:06:35.572Z,95858.72
2023-01-17T14:09:08.122Z,95854.09
2023-01-17T14:11:36.928Z,95855.13
2023-01-17T14:14:40.383Z,95849.47
2023-01-17T14:17:37.296Z,95855.38
2023-01-17T14:20:09.835Z,95852.56
2023-01-17T14:22:41.162Z,95850.75
2023-01-17T14:25:17.667Z,95858.69
2023-01-17T14:27:47.251Z,95846.94
2023-01-17T14:30:16.926Z,95847.66
2023-01-17T14:32:58.659Z,95839.22
2023-01-17T14:35:35.882Z,95838.38
2023-01-17T14:38:03.340Z,95848.41
2023-01-17T14:40:32.924Z,95860.13
2023-01-17T14:43:07.422Z,95844.78
2023-01-17T14:45:35.609Z,95856.31
2023-01-17T14:48:14.505Z,95851.97
2023-01-17T14:50:42.851Z,95849.13
2023-01-17T14:53:16.251Z,95840.19
2023-01-17T14:55:50.179Z,95843.75
2023-01-17T14:58:21.727Z,95855.81
2023-01-17T15:00:51.127Z,95865.00
2023-01-17T15:03:17.937Z,95855.78
2023-01-17T15:05:47.563Z,95854.50
2023-01-17T15:08:17.923Z,95887.56
2023-01-17T15:11:03.062Z,95866.34
2023-01-17T15:13:44.352Z,95867.38
2023-01-17T15:16:18.969Z,95873.00
2023-01-17T15:18:46.306Z,95878.84
2023-01-17T15:21:17.250Z,95866.81
2023-01-17T15:23:48.153Z,95852.47
2023-01-17T15:26:18.136Z,95876.28
2023-01-17T15:28:45.692Z,95862.22
2023-01-17T15:31:16.742Z,95880.34
2023-01-17T15:33:46.867Z,95881.13
2023-01-17T15:36:38.606Z,95871.41
2023-01-17T15:39:17.650Z,95862.09
2023-01-17T15:41:44.273Z,95898.19
2023-01-17T15:44:47.487Z,95891.59
2023-01-17T15:47:44.194Z,95888.97
2023-01-17T15:50:20.282Z,95876.97
2023-01-17T15:52:54.454Z,95874.41
2023-01-17T15:55:29.660Z,95865.69
2023-01-17T15:57:56.245Z,95858.50
2023-01-17T16:00:32.520Z,95852.63
2023-01-17T16:02:59.768Z,95867.78
2023-01-17T16:05:31.010Z,95860.63
2023-01-17T16:08:23.165Z,95881.88
2023-01-17T16:10:54.843Z,95863.16
2023-01-17T16:13:21.921Z,95868.22
2023-01-17T16:15:48.711Z,95882.03
2023-01-17T16:18:19.313Z,95886.88
2023-01-17T16:20:45.834Z,95878.75
2023-01-17T16:23:12.763Z,95881.50
2023-01-17T16:25:39.381Z,95879.97
2023-01-17T16:28:06.503Z,95872.03
2023-01-17T16:30:33.742Z,95885.09
2023-01-17T16:33:00.550Z,95861.53
2023-01-17T16:35:30.157Z,95870.25
2023-01-17T16:38:02.569Z,95875.88
2023-01-17T16:40:31.930Z,95877.97
2023-01-17T16:43:00.385Z,95874.19
2023-01-17T16:45:27.517Z,95873.94
2023-01-17T16:47:54.641Z,95885.97
2023-01-17T16:50:24.126Z,95888.28
2023-01-17T16:52:52.487Z,95894.69
2023-01-17T16:55:22.443Z,95888.28
2023-01-17T16:57:50.685Z,95886.50
2023-01-17T17:00:18.497Z,95897.75
2023-01-17T17:02:45.088Z,95882.81
2023-01-17T17:05:11.765Z,95871.28
2023-01-17T17:07:45.627Z,95881.22
2023-01-17T17:10:15.400Z,95886.00
2023-01-17T17:12:42.942Z,95881.63
2023-01-17T17:15:10.802Z,95870.84
2023-01-17T17:17:42.189Z,95873.13
2023-01-17T17:20:12.584Z,95864.44
2023-01-17T17:22:40.975Z,95872.88
2023-01-17T17:25:07.817Z,95862.94
2023-01-17T17:27:34.357Z,95863.75
2023-01-17T17:30:00.982Z,95846.94
2023-01-17T17:32:28.131Z,95839.53
2023-01-17T17:34:54.630Z,95839.81
2023-01-17T17:37:22.526Z,95845.16
2023-01-17T17:39:49.479Z,95844.91
2023-01-17T17:42:16.099Z,95835.41
2023-01-17T17:44:42.630Z,95842.31
2023-01-17T17:47:11.687Z,95840.50
2023-01-17T17:49:38.950Z,95818.72
2023-01-17T17:52:09.171Z,95807.75
2023-01-17T17:54:36.022Z,95819.75
2023-01-17T17:57:02.812Z,95799.28
2023-01-17T17:59:30.008Z,95784.69
2023-01-17T18:01:57.067Z,95801.34
2023-01-17T18:04:23.786Z,95816.94
2023-01-17T18:06:50.396Z,95825.63
2023-01-17T18:09:17.379Z,95810.56
2023-01-17T18:11:44.475Z,95823.63
2023-01-17T18:14:14.160Z,95822.63
2023-01-17T18:16:43.763Z,95821.91
2023-01-17T18:19:24.914Z,95820.66
2023-01-17T18:21:52.706Z,95816.03
2023-01-17T18:24:21.849Z,95837.59
2023-01-17T18:26:53.895Z,95835.03
2023-01-17T18:29:22.033Z,95839.91
2023-01-17T18:31:50.427Z,95829.41
2023-01-17T18:34:21.307Z,95844.44
2023-01-17T18:36:47.823Z,95830.88
2023-01-17T18:39:26.013Z,95833.44
2023-01-17T18:41:53.969Z,95839.31
2023-01-17T18:44:22.216Z,95816.00
2023-01-17T18:46:50.342Z,95844.91
2023-01-17T18:49:19.297Z,95852.53
2023-01-17T18:51:50.450Z,95836.66
2023-01-17T18:54:18.220Z,95834.09
2023-01-17T18:56:45.071Z,95842.06
2023-01-17T18:59:13.000Z,95849.69
2023-01-17T19:01:42.256Z,95859.16
2023-01-17T19:04:09.575Z,95860.88
2023-01-17T19:06:39.740Z,95869.78
2023-01-17T19:09:07.799Z,95865.91
2023-01-17T19:11:35.277Z,95849.28
2023-01-17T19:14:02.833Z,95850.00
2023-01-17T19:16:31.743Z,95855.38
2023-01-17T19:19:02.338Z,95829.56
2023-01-17T19:21:29.791Z,95837.53
2023-01-17T19:23:56.978Z,95847.00
2023-01-17T19:26:25.538Z,95856.78
2023-01-17T19:28:52.207Z,95866.03
2023-01-17T19:31:24.145Z,95835.91
2023-01-17T19:33:53.557Z,95842.53
2023-01-17T19:36:23.632Z,95835.59
2023-01-17T19:39:03.474Z,95818.94
2023-01-17T19:41:32.009Z,95816.63
2023-01-17T20:08:42.549Z,95867.94
2023-01-17T20:11:20.845Z,95849.22
2023-01-17T20:13:49.245Z,95849.22
2023-01-17T20:16:17.026Z,95841.53
2023-01-17T20:18:44.575Z,95857.84
2023-01-17T20:21:15.460Z,95805.69
2023-01-17T20:23:43.234Z,95841.53
2023-01-17T20:26:15.340Z,95833.81
2023-01-17T20:28:43.592Z,95825.91
2023-01-17T20:31:15.545Z,95812.59
2023-01-17T20:33:44.036Z,95828.72
2023-01-17T20:36:14.934Z,95831.78
2023-01-17T20:38:45.687Z,95829.50
2023-01-17T20:41:25.762Z,95867.59
2023-01-17T20:43:55.182Z,95847.16
2023-01-17T20:46:24.301Z,95853.31
2023-01-17T20:48:53.284Z,95853.31
2023-01-17T20:51:21.677Z,95866.09
2023-01-17T20:53:52.555Z,95865.91
2023-01-17T20:56:19.863Z,95869.72
2023-01-17T20:58:46.607Z,95877.88
2023-01-17T21:01:19.823Z,95884.22
2023-01-17T21:03:49.289Z,95863.72
2023-01-17T21:06:16.127Z,95877.50
2023-01-17T21:08:44.659Z,95858.81
2023-01-17T21:11:13.561Z,95873.59
2023-01-17T21:13:40.406Z,95875.38
2023-01-17T21:16:09.335Z,95866.44
2023-01-17T21:18:36.496Z,95875.34
2023-01-17T21:21:08.621Z,95875.34
2023-01-17T21:23:36.616Z,95878.69
2023-01-17T21:26:04.373Z,95879.03
2023-01-17T21:28:34.191Z,95858.56
2023-01-17T21:31:01.582Z,95862.34
2023-01-17T21:33:29.446Z,95870.84
2023-01-17T21:36:06.736Z,95877.50
2023-01-17T21:38:33.263Z,95871.59
2023-01-17T21:40:59.799Z,95858.72
2023-01-17T21:43:26.473Z,95876.38
2023-01-17T21:45:53.523Z,95876.63
2023-01-17T21:48:20.281Z,95883.13
2023-01-17T21:50:47.391Z,95895.94
2023-01-17T21:53:14.168Z,95872.09
2023-01-17T21:55:58.920Z,95857.63
2023-01-17T21:58:43.690Z,95874.97
2023-01-17T22:01:17.826Z,95881.22
2023-01-17T22:03:56.125Z,95882.56
2023-01-17T22:06:25.133Z,95865.19
2023-01-17T22:08:51.678Z,95863.47
2023-01-17T22:11:20.844Z,95855.19
2023-01-17T22:13:47.909Z,95866.53
2023-01-17T22:16:18.069Z,95850.22
2023-01-17T22:18:45.554Z,95853.00
2023-01-17T22:21:13.645Z,95855.56
2023-01-17T22:23:54.730Z,95864.88
2023-01-17T22:26:23.425Z,95864.88
2023-01-17T22:28:50.032Z,95870.81
2023-01-17T22:31:22.452Z,95872.81
2023-01-17T22:33:57.954Z,95898.38
2023-01-17T22:36:24.988Z,95880.25
2023-01-17T22:38:52.232Z,95893.31
2023-01-17T22:41:24.436Z,95869.97
2023-01-17T22:43:57.053Z,95888.44
2023-01-17T22:46:27.383Z,95889.94
2023-01-17T22:48:55.689Z,95879.44
2023-01-17T22:51:26.142Z,95885.06
2023-01-17T22:53:55.827Z,95885.28
2023-01-17T22:56:26.513Z,95870.16
2023-01-17T22:58:53.371Z,95863.03
2023-01-17T23:01:23.467Z,95867.56
2023-01-17T23:03:57.261Z,95868.09
2023-01-17T23:06:25.652Z,95844.06
2023-01-17T23:08:55.575Z,95839.19
2023-01-17T23:11:49.777Z,95835.84
2023-01-17T23:14:31.106Z,95849.13
2023-01-17T23:17:21.471Z,95850.69
2023-01-17T23:19:51.054Z,95871.63
2023-01-17T23:22:21.331Z,95865.03
2023-01-17T23:24:58.212Z,95854.75
2023-01-17T23:27:47.529Z,95866.00
2023-01-17T23:30:16.479Z,95882.56
2023-01-17T23:32:52.398Z,95854.66
2023-01-17T23:35:21.616Z,95861.28
2023-01-17T23:38:06.674Z,95864.38
2023-01-17T23:40:35.574Z,95855.44
2023-01-17T23:43:21.239Z,95858.69
2023-01-17T23:45:48.063Z,95864.75
2023-01-17T23:48:14.991Z,95885.56
2023-01-17T23:50:44.358Z,95880.00
2023-01-17T23:53:15.437Z,95876.91
2023-01-17T23:55:45.715Z,95882.81
2023-01-17T23:58:12.663Z,95886.09
